createdAt,value
2022-12-26T00:00:00.741Z,9.65
2022-12-26T00:04:04.710Z,9.40
2022-12-26T00:08:08.212Z,8.80
2022-12-26T00:12:12.632Z,9.95
2022-12-26T00:16:17.556Z,10.48
2022-12-26T00:20:20.544Z,10.90
2022-12-26T00:24:23.693Z,11.00
2022-12-26T00:28:28.444Z,10.05
2022-12-26T00:32:31.613Z,10.25
2022-12-26T00:36:35.609Z,9.55
2022-12-26T00:40:42.961Z,9.15
2022-12-26T00:44:47.271Z,10.88
2022-12-26T00:48:50.241Z,10.25
2022-12-26T00:52:53.200Z,10.68
2022-12-26T00:56:56.123Z,10.65
2022-12-26T01:01:09.285Z,10.73
2022-12-26T01:05:13.066Z,10.98
2022-12-26T01:09:15.957Z,11.73
2022-12-26T01:13:18.923Z,11.20
2022-12-26T01:17:23.322Z,11.00
2022-12-26T01:21:26.284Z,11.25
2022-12-26T01:25:29.415Z,11.15
2022-12-26T01:29:32.604Z,12.23
2022-12-26T01:33:37.057Z,10.18
2022-12-26T01:37:40.040Z,12.07
2022-12-26T01:41:42.991Z,11.38
2022-12-26T01:45:51.448Z,11.73
2022-12-26T01:49:56.709Z,11.25
2022-12-26T01:54:38.228Z,11.73
2022-12-26T01:58:31.726Z,10.95
2022-12-26T02:02:55.346Z,11.57
2022-12-26T02:07:00.511Z,11.68
2022-12-26T02:11:11.800Z,12.48
2022-12-26T02:15:17.893Z,11.38
2022-12-26T02:19:37.267Z,11.68
2022-12-26T02:24:17.276Z,11.27
2022-12-26T02:28:46.650Z,10.90
2022-12-26T02:33:23.331Z,10.38
2022-12-26T02:37:44.346Z,10.38
2022-12-26T02:41:57.300Z,9.60
2022-12-26T02:46:27.057Z,9.40
2022-12-26T02:50:58.253Z,10.38
2022-12-26T02:55:25.754Z,9.80
2022-12-26T02:59:59.055Z,9.23
2022-12-26T03:04:22.813Z,9.90
2022-12-26T03:08:50.815Z,9.23
2022-12-26T03:13:13.124Z,8.65
2022-12-26T03:17:32.840Z,9.85
2022-12-26T03:21:40.212Z,9.52
2022-12-26T03:26:13.920Z,8.68
2022-12-26T03:30:34.914Z,8.93
2022-12-26T03:34:42.727Z,10.15
2022-12-26T03:38:56.051Z,8.48
2022-12-26T03:43:28.761Z,8.90
2022-12-26T03:47:57.522Z,9.25
2022-12-26T03:52:22.309Z,9.02
2022-12-26T03:56:48.472Z,8.63
2022-12-26T04:01:14.271Z,8.88
2022-12-26T04:05:37.791Z,9.15
2022-12-26T04:10:02.702Z,8.15
2022-12-26T04:14:29.872Z,8.70
2022-12-26T04:18:57.190Z,8.13
2022-12-26T04:23:38.271Z,8.75
2022-12-26T04:27:58.860Z,9.25
2022-12-26T04:32:26.051Z,8.45
2022-12-26T04:36:51.656Z,8.27
2022-12-26T04:41:18.585Z,9.02
2022-12-26T04:45:22.752Z,8.55
2022-12-26T04:49:43.314Z,8.68
2022-12-26T04:53:47.604Z,9.35
2022-12-26T04:57:50.574Z,9.32
2022-12-26T05:02:11.039Z,8.70
2022-12-26T05:06:31.392Z,8.98
2022-12-26T05:10:35.997Z,8.68
2022-12-26T05:14:38.998Z,8.75
2022-12-26T05:18:59.489Z,9.30
2022-12-26T05:23:22.272Z,9.25
2022-12-26T05:27:49.142Z,8.65
2022-12-26T05:31:52.487Z,10.20
2022-12-26T05:35:55.493Z,8.90
2022-12-26T05:39:58.400Z,9.15
2022-12-26T05:44:02.854Z,9.18
2022-12-26T05:48:06.227Z,9.30
2022-12-26T05:52:09.168Z,9.50
2022-12-26T05:56:14.975Z,8.82
2022-12-26T06:00:19.924Z,8.35
2022-12-26T06:04:22.883Z,8.18
2022-12-26T06:08:25.829Z,8.85
2022-12-26T06:12:28.759Z,8.35
2022-12-26T06:16:33.149Z,9.00
2022-12-26T06:20:39.316Z,8.52
2022-12-26T06:24:42.602Z,9.38
2022-12-26T06:28:47.505Z,9.00
2022-12-26T06:32:52.885Z,9.70
2022-12-26T06:36:56.666Z,9.90
2022-12-26T06:41:00.842Z,8.90
2022-12-26T06:45:04.456Z,9.85
2022-12-26T06:49:09.028Z,9.60
2022-12-26T06:53:11.977Z,9.60
2022-12-26T06:57:14.891Z,10.23
2022-12-26T07:01:19.991Z,10.68
2022-12-26T07:05:24.520Z,9.32
2022-12-26T07:09:33.418Z,9.85
2022-12-26T07:13:36.882Z,9.90
2022-12-26T07:17:39.836Z,9.40
2022-12-26T07:21:44.684Z,10.00
2022-12-26T07:25:48.410Z,9.68
2022-12-26T07:29:51.590Z,9.65
2022-12-26T07:33:57.558Z,10.40
2022-12-26T07:38:02.051Z,10.77
2022-12-26T07:42:05.108Z,11.20
2022-12-26T07:46:08.819Z,10.52
2022-12-26T07:50:11.845Z,10.40
2022-12-26T07:54:16.260Z,11.05
2022-12-26T07:58:19.154Z,11.15
2022-12-26T08:02:22.522Z,10.63
2022-12-26T08:06:27.435Z,10.88
2022-12-26T08:10:32.474Z,10.25
2022-12-26T08:14:35.917Z,10.40
2022-12-26T08:18:39.852Z,10.75
2022-12-26T08:22:43.161Z,10.88
2022-12-26T08:26:47.416Z,10.50
2022-12-26T08:30:50.779Z,11.07
2022-12-26T08:34:53.673Z,11.43
2022-12-26T08:38:57.377Z,10.45
2022-12-26T08:43:22.032Z,12.25
2022-12-26T08:47:26.575Z,11.57
2022-12-26T08:51:29.578Z,11.63
2022-12-26T08:55:32.701Z,10.40
2022-12-26T08:59:37.108Z,12.27
2022-12-26T09:03:40.680Z,11.13
2022-12-26T09:07:43.618Z,10.50
2022-12-26T09:11:48.002Z,11.00
2022-12-26T09:15:52.484Z,9.93
2022-12-26T09:19:55.557Z,10.35
2022-12-26T09:23:59.126Z,10.50
2022-12-26T09:28:02.159Z,10.90
2022-12-26T09:32:07.007Z,10.55
2022-12-26T09:36:14.801Z,10.00
2022-12-26T09:40:31.340Z,10.25
2022-12-26T09:44:46.572Z,12.15
2022-12-26T09:48:57.516Z,11.60
2022-12-26T09:53:04.164Z,11.75
2022-12-26T09:57:15.268Z,11.13
2022-12-26T10:01:21.509Z,11.45
2022-12-26T10:05:29.520Z,11.55
2022-12-26T10:09:55.348Z,11.75
2022-12-26T10:14:04.714Z,11.45
2022-12-26T10:18:19.087Z,11.70
2022-12-26T10:22:46.373Z,11.38
2022-12-26T10:26:51.886Z,10.70
2022-12-26T10:30:57.202Z,11.52
2022-12-26T10:35:01.360Z,11.48
2022-12-26T10:39:13.163Z,11.55
2022-12-26T10:43:28.539Z,11.25
2022-12-26T10:47:38.946Z,11.82
2022-12-26T10:51:41.879Z,10.82
2022-12-26T10:55:46.285Z,9.52
2022-12-26T10:59:52.624Z,10.73
2022-12-26T11:03:57.076Z,9.90
2022-12-26T11:08:08.755Z,10.32
2022-12-26T11:12:22.358Z,10.52
2022-12-26T11:16:27.710Z,10.38
2022-12-26T11:20:32.851Z,10.38
2022-12-26T11:24:35.814Z,9.68
2022-12-26T11:28:40.076Z,10.00
2022-12-26T11:32:43.911Z,10.80
2022-12-26T11:36:49.531Z,9.75
2022-12-26T11:41:12.738Z,10.55
2022-12-26T11:45:23.493Z,9.93
2022-12-26T11:49:31.017Z,9.95
2022-12-26T11:53:34.884Z,10.75
2022-12-26T11:57:37.789Z,10.52
2022-12-26T12:01:42.537Z,10.13
2022-12-26T12:05:54.224Z,10.45
2022-12-26T12:10:04.200Z,9.98
2022-12-26T12:14:22.718Z,11.50
2022-12-26T12:18:40.698Z,10.73
2022-12-26T12:23:19.528Z,11.13
2022-12-26T12:27:30.536Z,9.40
2022-12-26T12:31:47.111Z,10.95
2022-12-26T12:36:01.693Z,11.95
2022-12-26T12:40:17.840Z,10.98
2022-12-26T12:44:29.410Z,10.55
2022-12-26T12:48:47.980Z,11.05
2022-12-26T12:53:01.848Z,10.68
2022-12-26T12:57:14.281Z,11.15
2022-12-26T13:01:20.292Z,10.63
2022-12-26T13:05:39.416Z,10.88
2022-12-26T13:09:49.059Z,10.25
2022-12-26T13:13:56.754Z,10.57
2022-12-26T13:18:04.675Z,10.77
2022-12-26T13:22:14.339Z,10.63
2022-12-26T13:26:22.436Z,12.13
2022-12-26T13:30:25.615Z,10.35
2022-12-26T13:34:29.173Z,9.70
2022-12-26T13:39:09.505Z,11.85
2022-12-26T13:43:39.037Z,10.35
2022-12-26T13:47:42.197Z,9.65
2022-12-26T13:51:54.439Z,9.82
2022-12-26T13:55:59.719Z,10.05
2022-12-26T14:00:30.177Z,10.52
2022-12-26T14:04:48.955Z,10.35
2022-12-26T14:09:13.307Z,10.60
2022-12-26T14:13:37.575Z,10.05
2022-12-26T14:18:03.227Z,9.98
2022-12-26T14:22:16.777Z,10.65
2022-12-26T14:26:33.576Z,11.85
2022-12-26T14:30:52.508Z,10.65
2022-12-26T14:35:07.615Z,10.80
2022-12-26T14:39:23.529Z,11.05
2022-12-26T14:43:46.969Z,11.07
2022-12-26T14:47:50.666Z,10.75
2022-12-26T14:51:55.319Z,11.25
2022-12-26T14:56:00.051Z,10.98
2022-12-26T15:00:30.999Z,10.93
2022-12-26T15:05:09.138Z,9.85
2022-12-26T15:09:40.021Z,10.57
2022-12-26T15:14:15.589Z,10.98
2022-12-26T15:18:48.826Z,11.13
2022-12-26T15:23:24.625Z,10.45
2022-12-26T15:27:45.066Z,11.05
2022-12-26T15:31:57.525Z,10.90
2022-12-26T15:36:08.266Z,11.15
2022-12-26T15:40:16.399Z,10.15
2022-12-26T15:44:29.869Z,10.02
2022-12-26T15:48:45.837Z,9.93
2022-12-26T15:53:00.917Z,10.45
2022-12-26T15:57:16.130Z,10.30
2022-12-26T16:01:39.355Z,10.45
2022-12-26T16:05:52.908Z,10.00
2022-12-26T16:09:57.085Z,10.35
2022-12-26T16:14:02.253Z,10.55
2022-12-26T16:18:18.085Z,10.40
2022-12-26T16:22:46.969Z,11.50
2022-12-26T16:26:50.331Z,11.38
2022-12-26T16:30:53.680Z,9.73
2022-12-26T16:34:58.847Z,9.45
2022-12-26T16:39:02.680Z,9.52
2022-12-26T16:43:08.155Z,10.38
2022-12-26T16:47:14.121Z,9.73
2022-12-26T16:51:39.324Z,10.25
2022-12-26T16:55:45.444Z,10.23
2022-12-26T16:59:52.174Z,9.88
2022-12-26T17:03:59.421Z,10.05
2022-12-26T17:08:05.444Z,9.82
2022-12-26T17:12:18.286Z,9.75
2022-12-26T17:16:24.361Z,10.27
2022-12-26T17:20:45.024Z,9.65
2022-12-26T17:24:50.867Z,10.57
2022-12-26T17:28:54.091Z,9.90
2022-12-26T17:33:02.803Z,9.38
2022-12-26T17:37:19.083Z,10.05
2022-12-26T17:41:24.038Z,10.40
2022-12-26T17:45:28.671Z,11.48
2022-12-26T17:49:31.673Z,11.40
2022-12-26T17:53:37.258Z,11.05
2022-12-26T17:57:41.690Z,11.05
2022-12-26T18:01:44.740Z,11.25
2022-12-26T18:05:49.157Z,10.75
2022-12-26T18:09:53.503Z,11.10
2022-12-26T18:13:58.132Z,11.35
2022-12-26T18:18:01.150Z,9.77
2022-12-26T18:22:04.296Z,11.27
2022-12-26T18:26:25.860Z,11.27
2022-12-26T18:30:30.403Z,10.40
2022-12-26T18:34:34.422Z,9.85
2022-12-26T18:38:37.375Z,9.48
2022-12-26T18:42:40.484Z,10.23
2022-12-26T18:46:44.810Z,10.05
2022-12-26T18:50:47.776Z,10.25
2022-12-26T18:54:50.693Z,10.02
2022-12-26T18:58:57.852Z,9.90
2022-12-26T19:03:02.954Z,9.57
2022-12-26T19:07:06.101Z,10.40
2022-12-26T19:11:09.053Z,3.75
2022-12-26T19:15:13.659Z,1.88
2022-12-26T19:19:18.148Z,1.20
2022-12-26T19:23:21.067Z,1.10
2022-12-26T19:27:24.668Z,1.00
2022-12-26T19:31:27.831Z,0.85
2022-12-26T19:35:32.199Z,0.70
2022-12-26T19:39:35.369Z,0.60
2022-12-26T19:43:38.433Z,0.73
2022-12-26T19:47:41.381Z,0.60
2022-12-26T19:51:47.093Z,0.60
2022-12-26T19:55:50.129Z,0.60
2022-12-26T19:59:53.133Z,0.65
2022-12-26T20:03:57.358Z,2.13
2022-12-26T20:08:01.723Z,0.80
2022-12-26T20:12:05.042Z,0.50
2022-12-26T20:16:29.884Z,0.40
2022-12-26T20:20:33.104Z,0.50
2022-12-26T20:24:37.612Z,0.30
2022-12-26T20:28:40.640Z,0.45
2022-12-26T20:32:46.719Z,0.20
2022-12-26T20:36:50.090Z,0.45
2022-12-26T20:40:54.424Z,0.40
2022-12-26T20:44:57.349Z,0.13
2022-12-26T20:49:01.854Z,0.20
2022-12-26T20:53:04.840Z,0.17
2022-12-26T20:57:09.265Z,0.30
2022-12-26T21:01:15.478Z,0.30
2022-12-26T21:05:18.647Z,0.10
2022-12-26T21:09:21.906Z,0.30
2022-12-26T21:13:26.277Z,0.20
2022-12-26T21:17:29.312Z,0.10
2022-12-26T21:21:34.488Z,0.20
2022-12-26T21:25:37.419Z,0.20
2022-12-26T21:29:42.077Z,0.30
2022-12-26T21:33:45.152Z,0.25
2022-12-26T21:37:51.537Z,0.40
2022-12-26T21:41:54.503Z,0.10
2022-12-26T21:46:01.330Z,0.20
2022-12-26T21:50:05.172Z,0.28
2022-12-26T21:54:25.692Z,0.20
2022-12-26T21:58:29.430Z,0.22
2022-12-26T22:02:53.044Z,0.20
2022-12-26T22:06:56.318Z,0.08
2022-12-26T22:11:16.483Z,0.10
2022-12-26T22:15:37.196Z,0.20
2022-12-26T22:19:41.726Z,0.10
2022-12-26T22:23:45.072Z,0.10
2022-12-26T22:27:48.568Z,0.10
2022-12-26T22:31:51.499Z,0.20
2022-12-26T22:35:56.239Z,0.15
2022-12-26T22:39:59.210Z,0.10
2022-12-26T22:44:02.462Z,0.05
2022-12-26T22:48:05.715Z,0.08
2022-12-26T22:52:15.727Z,0.15
2022-12-26T22:56:18.971Z,0.08
2022-12-26T23:00:21.911Z,0.10
2022-12-26T23:04:25.890Z,0.10
2022-12-26T23:08:31.093Z,0.20
2022-12-26T23:12:47.062Z,0.08
2022-12-26T23:16:55.281Z,0.00
2022-12-26T23:21:19.284Z,0.20
2022-12-26T23:25:23.589Z,0.10
2022-12-26T23:29:44.447Z,0.20
2022-12-26T23:33:47.482Z,0.13
2022-12-26T23:37:51.644Z,0.10
2022-12-26T23:41:56.173Z,0.20
2022-12-26T23:45:59.507Z,0.13
2022-12-26T23:50:02.482Z,0.15
2022-12-26T23:54:05.533Z,0.00
2022-12-26T23:58:10.095Z,0.10
